Terminal Aerodrome Forecast
Issued by NWS Lake Charles, LA

Home | Current Version | Previous Version | Text Only | Print | Product List | Glossary On
Versions: 1 2 3 4 5 6 7 8 9 10 11 12 13 14 15 16 17
153
FTUS44 KLCH 240520
TAFARA
TAF
KARA 240520Z 2406/2506 VRB03KT P6SM SCT030 SCT250
     FM241500 28004KT P6SM VCSH SCT025
     FM241800 18006KT P6SM VCTS BKN035CB BKN100
      TEMPO 2418/2422 20008KT 2SM TSRA SCT030 BKN050CB OVC100
     FM250000 20002KT P6SM OVC250=

USA.gov is the U.S. government's official web portal to all federal, state and local government web resources and services.